Time;durP1;ratioP1;P1;durP2;ratioP2;P2;SDS_P1;SDS_P2;PMS_P1;PMS_P2;Temp;Humidity;BMP_temperature;BMP_pressure;BME280_temperature;BME280_humidity;BME280_pressure;Samples;Min_cycle;Max_cycle;Signal;HPM_P1;HPM_P2
2020/12/25 00:00:43;;;;;;;7.15;2.40;;;4.70;87.20;;;;;;5045173;28;20044;-72
2020/12/25 00:03:14;;;;;;;10.82;2.28;;;4.70;86.90;;;;;;5048946;28;20044;-72
2020/12/25 00:05:43;;;;;;;8.63;2.17;;;4.70;86.90;;;;;;5045613;28;20048;-72
2020/12/25 00:08:09;;;;;;;12.25;2.47;;;4.80;86.60;;;;;;5048761;28;20391;-72
2020/12/25 00:10:35;;;;;;;7.57;2.38;;;4.90;85.70;;;;;;5044505;28;20028;-73
2020/12/25 00:13:00;;;;;;;10.20;2.00;;;4.80;85.80;;;;;;5045789;28;20499;-75
2020/12/25 00:15:26;;;;;;;10.40;2.03;;;4.80;85.70;;;;;;5049115;28;20060;-72
2020/12/25 00:17:51;;;;;;;8.32;2.38;;;4.80;85.40;;;;;;5045387;28;20029;-71
2020/12/25 00:20:17;;;;;;;10.18;2.50;;;4.90;84.80;;;;;;5047987;28;20483;-72
2020/12/25 00:22:43;;;;;;;8.35;1.90;;;4.90;84.70;;;;;;5047184;28;20033;-72
2020/12/25 00:25:09;;;;;;;8.13;1.83;;;4.90;84.70;;;;;;5045146;28;20307;-72
2020/12/25 00:27:34;;;;;;;9.48;2.42;;;4.90;85.00;;;;;;5044586;28;20025;-75
2020/12/25 00:30:00;;;;;;;7.97;1.60;;;4.90;85.30;;;;;;5042432;28;20078;-71
2020/12/25 00:32:26;;;;;;;11.77;2.38;;;4.80;85.50;;;;;;5042678;28;20701;-71
2020/12/25 00:34:51;;;;;;;9.38;1.70;;;4.70;86.20;;;;;;5050452;28;20029;-73
2020/12/25 00:37:17;;;;;;;8.45;1.88;;;4.70;86.50;;;;;;5058986;28;20033;-73
2020/12/25 00:39:43;;;;;;;4.20;1.90;;;4.60;86.90;;;;;;5051618;28;20029;-75
2020/12/25 00:42:10;;;;;;;7.30;1.60;;;4.60;87.10;;;;;;5043778;28;20033;-73
2020/12/25 00:44:35;;;;;;;7.40;2.38;;;4.50;87.30;;;;;;5056617;28;20052;-72
2020/12/25 00:47:01;;;;;;;14.85;2.67;;;4.50;87.50;;;;;;5065312;28;20117;-72
2020/12/25 00:49:27;;;;;;;10.35;2.47;;;4.40;87.80;;;;;;5066000;28;20041;-71
2020/12/25 00:51:52;;;;;;;11.52;2.53;;;4.30;88.10;;;;;;5070319;28;20555;-72
2020/12/25 00:54:18;;;;;;;10.85;2.38;;;4.30;88.30;;;;;;5063661;28;20059;-75
2020/12/25 00:56:44;;;;;;;9.27;2.03;;;4.20;88.50;;;;;;5062615;28;20052;-71
2020/12/25 00:59:09;;;;;;;10.40;2.22;;;4.10;88.80;;;;;;5045388;28;20033;-72
2020/12/25 01:01:37;;;;;;;13.18;2.60;;;4.10;89.10;;;;;;5047451;28;20033;-72
2020/12/25 01:04:03;;;;;;;11.13;2.75;;;4.00;89.30;;;;;;5045560;28;20033;-72
2020/12/25 01:06:29;;;;;;;9.63;2.45;;;4.00;89.50;;;;;;5046523;28;20507;-72
2020/12/25 01:08:54;;;;;;;10.13;2.15;;;3.90;89.90;;;;;;5043299;28;20088;-72
2020/12/25 01:11:24;;;;;;;7.68;2.35;;;3.90;89.80;;;;;;5037899;28;20044;-76
2020/12/25 01:13:49;;;;;;;10.90;3.28;;;3.90;89.80;;;;;;5042577;28;20029;-73
2020/12/25 01:16:15;;;;;;;8.48;2.75;;;3.80;89.90;;;;;;5061457;28;20029;-72
2020/12/25 01:18:43;;;;;;;11.18;3.63;;;3.80;90.20;;;;;;5066449;28;20043;-72
2020/12/25 01:21:09;;;;;;;14.23;3.33;;;3.80;90.30;;;;;;5065098;28;20467;-73
2020/12/25 01:23:34;;;;;;;17.15;3.20;;;3.80;90.30;;;;;;5064489;28;20044;-73
2020/12/25 01:26:00;;;;;;;13.10;3.90;;;3.70;90.30;;;;;;5066082;28;20398;-72
2020/12/25 01:28:26;;;;;;;13.35;3.70;;;3.70;90.30;;;;;;5056343;28;20044;-72
2020/12/25 01:30:51;;;;;;;12.15;4.28;;;3.70;90.30;;;;;;5062301;28;20432;-72
2020/12/25 01:33:17;;;;;;;16.80;4.03;;;3.70;90.20;;;;;;5065042;28;20931;-74
2020/12/25 01:35:43;;;;;;;14.40;3.83;;;3.60;90.10;;;;;;5066365;28;20514;-74
2020/12/25 01:38:09;;;;;;;10.35;3.33;;;3.60;90.50;;;;;;5065310;28;20024;-74
2020/12/25 01:40:34;;;;;;;11.88;3.65;;;3.50;90.70;;;;;;5063722;28;20810;-72
2020/12/25 01:43:00;;;;;;;11.57;3.42;;;3.50;90.90;;;;;;5067334;28;20040;-72
2020/12/25 01:45:26;;;;;;;11.85;3.53;;;3.50;91.00;;;;;;5062385;28;20043;-73
2020/12/25 01:47:53;;;;;;;9.18;3.50;;;3.40;91.00;;;;;;5064196;28;20033;-71
2020/12/25 01:50:19;;;;;;;12.68;3.28;;;3.40;91.00;;;;;;5062046;28;20051;-72
2020/12/25 01:52:46;;;;;;;14.73;3.50;;;3.30;91.10;;;;;;5060407;28;20078;-73
2020/12/25 01:55:13;;;;;;;11.05;2.97;;;3.30;91.10;;;;;;5059726;28;20461;-71
2020/12/25 01:57:40;;;;;;;11.00;3.65;;;3.20;91.20;;;;;;5064561;28;20036;-71
2020/12/25 02:00:07;;;;;;;12.52;3.42;;;3.10;91.30;;;;;;5065533;28;20547;-72
2020/12/25 02:02:32;;;;;;;12.25;3.05;;;3.20;91.30;;;;;;5065354;28;20036;-71
2020/12/25 02:04:59;;;;;;;11.35;3.63;;;3.20;91.30;;;;;;5063351;28;20124;-72
2020/12/25 02:07:24;;;;;;;12.02;3.58;;;3.10;91.20;;;;;;5067079;28;20032;-70
2020/12/25 02:09:50;;;;;;;12.82;3.78;;;3.10;91.20;;;;;;5068738;28;20024;-71
2020/12/25 02:12:16;;;;;;;11.57;4.38;;;3.10;91.10;;;;;;5081248;28;20029;-72
2020/12/25 02:14:42;;;;;;;12.68;4.22;;;3.10;90.80;;;;;;5063955;28;20032;-71
2020/12/25 02:17:08;;;;;;;7.28;3.33;;;3.10;90.80;;;;;;5064241;28;20025;-71
2020/12/25 02:19:38;;;;;;;12.15;2.83;;;3.10;90.50;;;;;;5065151;28;20035;-71
2020/12/25 02:22:04;;;;;;;11.80;2.95;;;3.10;90.30;;;;;;5066222;28;20062;-71
2020/12/25 02:24:29;;;;;;;13.68;2.90;;;3.10;90.10;;;;;;5059746;28;20626;-71
2020/12/25 02:26:55;;;;;;;13.98;3.00;;;3.20;89.80;;;;;;5064828;28;20602;-71
2020/12/25 02:29:20;;;;;;;14.80;3.05;;;3.20;89.80;;;;;;5060835;28;20792;-71
2020/12/25 02:31:46;;;;;;;9.85;2.47;;;3.20;89.80;;;;;;5065757;28;20490;-70
2020/12/25 02:34:12;;;;;;;15.10;3.22;;;3.30;89.80;;;;;;5062387;28;20033;-72
2020/12/25 02:36:38;;;;;;;10.13;2.80;;;3.30;89.50;;;;;;5067072;28;20040;-70
2020/12/25 02:39:04;;;;;;;11.80;3.20;;;3.30;89.40;;;;;;5065078;28;20506;-71
2020/12/25 02:41:31;;;;;;;9.23;2.75;;;3.30;89.40;;;;;;5062926;28;20047;-70
2020/12/25 02:43:57;;;;;;;13.63;2.70;;;3.30;89.40;;;;;;5068595;28;20029;-71
2020/12/25 02:46:25;;;;;;;13.18;3.30;;;3.30;89.30;;;;;;5058483;28;20032;-71
2020/12/25 02:48:51;;;;;;;13.60;3.47;;;3.30;89.50;;;;;;5071992;28;20032;-73
2020/12/25 02:51:17;;;;;;;11.98;3.20;;;3.40;89.60;;;;;;5054181;28;20024;-71
2020/12/25 02:53:44;;;;;;;13.48;2.70;;;3.40;89.40;;;;;;5063345;28;20041;-72
2020/12/25 02:56:16;;;;;;;13.38;3.97;;;3.40;89.40;;;;;;5065449;28;20185;-71
2020/12/25 02:58:42;;;;;;;12.82;3.03;;;3.40;89.30;;;;;;5061047;28;20029;-70
2020/12/25 03:01:11;;;;;;;11.20;3.30;;;3.40;89.30;;;;;;5062918;28;20151;-71
2020/12/25 03:03:38;;;;;;;11.57;3.47;;;3.40;89.50;;;;;;5056815;28;20032;-71
2020/12/25 03:06:04;;;;;;;10.90;2.90;;;3.40;89.70;;;;;;5063414;28;20035;-75
2020/12/25 03:08:30;;;;;;;10.32;2.03;;;3.50;89.70;;;;;;5079535;28;20403;-70
2020/12/25 03:10:56;;;;;;;12.07;2.80;;;3.50;89.80;;;;;;5068272;28;20033;-71
2020/12/25 03:13:21;;;;;;;11.45;2.60;;;3.60;89.60;;;;;;5085604;28;20048;-70
2020/12/25 03:15:47;;;;;;;11.65;2.80;;;3.70;89.30;;;;;;5069878;28;20059;-71
2020/12/25 03:18:13;;;;;;;19.67;3.40;;;3.70;89.30;;;;;;5059090;28;20487;-71
2020/12/25 03:20:38;;;;;;;10.85;3.03;;;3.60;89.40;;;;;;5070437;28;20037;-70
2020/12/25 03:23:04;;;;;;;12.18;3.00;;;3.60;89.60;;;;;;5077660;28;20063;-71
2020/12/25 03:25:29;;;;;;;12.25;2.92;;;3.60;89.70;;;;;;5065924;28;20048;-70
2020/12/25 03:27:55;;;;;;;10.23;3.13;;;3.60;89.90;;;;;;5069081;28;20036;-71
2020/12/25 03:30:21;;;;;;;8.32;2.50;;;3.60;89.80;;;;;;5063529;28;20359;-71
2020/12/25 03:32:46;;;;;;;13.50;3.03;;;3.60;89.70;;;;;;5079523;28;20036;-71
2020/12/25 03:35:12;;;;;;;10.75;2.17;;;3.60;89.80;;;;;;5067495;28;20029;-71
2020/12/25 03:37:37;;;;;;;10.70;2.25;;;3.60;89.90;;;;;;5083236;28;20395;-71
2020/12/25 03:40:04;;;;;;;10.57;2.15;;;3.60;90.00;;;;;;5069015;28;20056;-71
2020/12/25 03:42:30;;;;;;;11.23;2.55;;;3.60;90.10;;;;;;5068780;28;20376;-71
2020/12/25 03:44:56;;;;;;;10.00;2.75;;;3.50;90.30;;;;;;5068818;28;20044;-71
2020/12/25 03:47:25;;;;;;;12.50;2.40;;;3.60;90.10;;;;;;5067590;28;20028;-71
2020/12/25 03:49:52;;;;;;;7.10;2.22;;;3.60;90.30;;;;;;5077131;28;20079;-71
2020/12/25 03:52:18;;;;;;;7.93;2.28;;;3.60;90.40;;;;;;5068929;28;20025;-71
2020/12/25 03:54:43;;;;;;;7.28;1.60;;;3.50;90.40;;;;;;5068189;28;20399;-70
2020/12/25 03:57:09;;;;;;;9.93;2.15;;;3.50;90.50;;;;;;5065013;28;20029;-70
2020/12/25 03:59:34;;;;;;;7.20;2.10;;;3.40;90.70;;;;;;5062159;28;20059;-71
2020/12/25 04:02:00;;;;;;;13.18;2.40;;;3.40;90.80;;;;;;5054845;28;20098;-71
2020/12/25 04:04:26;;;;;;;7.38;1.98;;;3.50;90.80;;;;;;5057083;28;20116;-72
2020/12/25 04:06:51;;;;;;;10.10;1.70;;;3.50;90.60;;;;;;5059898;28;20059;-71
2020/12/25 04:09:17;;;;;;;7.10;1.58;;;3.50;90.50;;;;;;5068741;28;20036;-71
2020/12/25 04:11:43;;;;;;;9.23;1.75;;;3.50;90.50;;;;;;5065089;28;20500;-71
2020/12/25 04:14:08;;;;;;;6.15;1.85;;;3.50;90.50;;;;;;5067913;28;20038;-71
2020/12/25 04:16:34;;;;;;;8.00;1.80;;;3.50;90.70;;;;;;5065237;28;20140;-71
2020/12/25 04:19:00;;;;;;;6.88;1.50;;;3.50;90.40;;;;;;5068365;28;20024;-70
2020/12/25 04:21:25;;;;;;;6.22;1.35;;;3.40;90.40;;;;;;5069018;28;20071;-70
2020/12/25 04:23:51;;;;;;;7.40;1.50;;;3.40;90.40;;;;;;5057207;28;20124;-71
2020/12/25 04:26:18;;;;;;;6.28;1.55;;;3.50;90.40;;;;;;5069729;28;20044;-72
2020/12/25 04:28:43;;;;;;;6.90;1.40;;;3.50;90.10;;;;;;5068467;28;20442;-71
2020/12/25 04:31:09;;;;;;;5.28;1.52;;;3.40;89.90;;;;;;5068096;28;20028;-70
2020/12/25 04:33:35;;;;;;;10.48;2.00;;;3.40;90.10;;;;;;5058899;28;20048;-71
2020/12/25 04:36:00;;;;;;;6.90;1.92;;;3.40;90.40;;;;;;5049037;28;20043;-75
2020/12/25 04:38:26;;;;;;;6.90;1.60;;;3.30;90.40;;;;;;5067046;28;20069;-72
2020/12/25 04:40:52;;;;;;;5.53;1.50;;;3.30;90.50;;;;;;5066797;28;20036;-70
2020/12/25 04:43:18;;;;;;;5.63;1.40;;;3.30;90.40;;;;;;5058125;28;20094;-71
2020/12/25 04:45:44;;;;;;;6.10;1.50;;;3.20;90.60;;;;;;5066282;28;20119;-73
2020/12/25 04:48:10;;;;;;;3.25;1.25;;;3.20;90.70;;;;;;5055697;28;20136;-71
2020/12/25 04:50:36;;;;;;;4.45;1.52;;;3.20;90.70;;;;;;5049037;28;20029;-71
2020/12/25 04:53:02;;;;;;;8.15;1.50;;;3.20;90.90;;;;;;5034249;28;20525;-71
2020/12/25 04:55:28;;;;;;;3.58;1.20;;;3.30;90.90;;;;;;5043698;28;20526;-74
2020/12/25 04:57:57;;;;;;;6.10;1.35;;;3.40;90.90;;;;;;5047890;28;20033;-71
2020/12/25 05:00:23;;;;;;;8.70;1.60;;;3.40;90.90;;;;;;5047280;28;20021;-70
2020/12/25 05:02:52;;;;;;;11.98;2.30;;;3.40;90.90;;;;;;5061503;28;20032;-70
2020/12/25 05:05:24;;;;;;;7.95;2.30;;;3.40;91.00;;;;;;5063263;28;20045;-70
2020/12/25 05:07:51;;;;;;;5.03;1.83;;;3.40;91.10;;;;;;5066723;28;20086;-70
2020/12/25 05:10:17;;;;;;;4.45;1.50;;;3.40;91.30;;;;;;5073978;28;20109;-70
2020/12/25 05:12:45;;;;;;;5.35;1.90;;;3.40;91.40;;;;;;5070895;28;20119;-72
2020/12/25 05:15:12;;;;;;;6.68;1.90;;;3.40;91.40;;;;;;5062868;28;20433;-72
2020/12/25 05:17:40;;;;;;;6.07;2.17;;;3.40;91.50;;;;;;5066585;28;20479;-71
2020/12/25 05:20:05;;;;;;;6.53;1.70;;;3.40;91.60;;;;;;5065673;28;20468;-71
2020/12/25 05:22:31;;;;;;;6.63;1.90;;;3.50;91.50;;;;;;5067108;28;20032;-71
2020/12/25 05:25:01;;;;;;;5.22;1.73;;;3.50;91.50;;;;;;5066024;28;20032;-72
2020/12/25 05:27:27;;;;;;;4.72;1.30;;;3.50;91.50;;;;;;5062491;28;20083;-70
2020/12/25 05:29:59;;;;;;;5.88;1.60;;;3.60;91.50;;;;;;5057355;28;20025;-71
2020/12/25 05:32:32;;;;;;;7.05;1.60;;;3.60;91.40;;;;;;5061657;28;20028;-74
2020/12/25 05:34:58;;;;;;;6.32;1.95;;;3.70;91.30;;;;;;5054735;28;20052;-71
2020/12/25 05:37:37;;;;;;;8.15;1.77;;;3.70;91.30;;;;;;5074256;28;20403;-70
2020/12/25 05:40:07;;;;;;;9.43;1.90;;;3.70;91.00;;;;;;5061300;28;20029;-71
2020/12/25 05:42:47;;;;;;;8.40;1.83;;;3.70;90.90;;;;;;5065729;28;20139;-71
2020/12/25 05:45:19;;;;;;;8.45;2.47;;;3.70;90.80;;;;;;5057306;28;20086;-70
2020/12/25 05:48:04;;;;;;;8.82;1.45;;;3.70;90.80;;;;;;5061324;28;20041;-70
2020/12/25 05:50:30;;;;;;;8.98;1.80;;;3.70;90.80;;;;;;5061595;28;20036;-70
2020/12/25 05:52:56;;;;;;;6.72;1.55;;;3.70;90.80;;;;;;5059656;28;20035;-71
2020/12/25 05:55:23;;;;;;;7.90;1.70;;;3.70;90.80;;;;;;5068996;28;20036;-71
2020/12/25 05:57:52;;;;;;;8.15;2.35;;;3.80;90.80;;;;;;5070118;28;20024;-71
2020/12/25 06:00:19;;;;;;;5.93;1.52;;;3.70;90.70;;;;;;5066736;28;20038;-71
2020/12/25 06:02:45;;;;;;;5.50;1.80;;;3.80;90.80;;;;;;5052440;28;20032;-70
2020/12/25 06:05:13;;;;;;;6.47;1.90;;;3.80;90.70;;;;;;5065864;28;20143;-72
2020/12/25 06:07:53;;;;;;;10.73;1.83;;;3.90;90.40;;;;;;5062737;28;20075;-71
2020/12/25 06:10:25;;;;;;;5.10;1.65;;;3.80;90.30;;;;;;5064581;28;20541;-72
2020/12/25 06:12:51;;;;;;;5.60;1.48;;;3.80;90.30;;;;;;5061848;28;20059;-72
2020/12/25 06:15:24;;;;;;;5.28;1.80;;;3.80;90.20;;;;;;5049611;28;20025;-71
2020/12/25 06:18:25;;;;;;;5.75;1.60;;;3.80;89.80;;;;;;5061907;28;20044;-72
2020/12/25 06:21:04;;;;;;;7.22;1.80;;;3.80;89.80;;;;;;5066243;28;20032;-74
2020/12/25 06:23:30;;;;;;;4.38;1.60;;;3.70;89.90;;;;;;5054120;28;20038;-72
2020/12/25 06:25:56;;;;;;;8.57;1.80;;;3.60;90.10;;;;;;5083503;28;20036;-71
2020/12/25 06:28:22;;;;;;;4.07;1.40;;;3.60;90.10;;;;;;5064619;28;20375;-71
2020/12/25 06:30:48;;;;;;;5.50;1.67;;;3.60;90.20;;;;;;5065464;28;20511;-72
2020/12/25 06:33:13;;;;;;;8.10;1.58;;;3.60;90.40;;;;;;5065679;28;20040;-74
2020/12/25 06:35:43;;;;;;;7.78;2.38;;;3.60;90.50;;;;;;5062073;28;20387;-71
2020/12/25 06:38:18;;;;;;;5.35;1.60;;;3.60;90.50;;;;;;5067148;28;20021;-72
2020/12/25 06:40:44;;;;;;;5.90;1.80;;;3.50;90.60;;;;;;5066369;28;20479;-71
2020/12/25 06:43:18;;;;;;;6.07;1.63;;;3.60;90.70;;;;;;5066279;28;20037;-72
2020/12/25 06:45:49;;;;;;;5.10;1.60;;;3.60;90.70;;;;;;5065432;28;20024;-72
2020/12/25 06:48:21;;;;;;;5.32;1.90;;;3.50;90.50;;;;;;5061524;28;20043;-72
2020/12/25 06:50:53;;;;;;;6.40;1.80;;;3.60;90.60;;;;;;5052526;28;20036;-72
2020/12/25 06:53:40;;;;;;;8.05;1.67;;;3.50;90.50;;;;;;5064835;28;20105;-72
2020/12/25 06:56:17;;;;;;;6.30;2.05;;;3.50;90.60;;;;;;5051002;28;20067;-71
2020/12/25 06:58:52;;;;;;;5.00;1.50;;;3.60;90.40;;;;;;5060275;28;20032;-71
2020/12/25 07:01:34;;;;;;;5.95;2.30;;;3.60;90.30;;;;;;5062404;28;20063;-73
2020/12/25 07:04:00;;;;;;;5.90;1.80;;;3.60;90.30;;;;;;5073738;28;20494;-72
2020/12/25 07:06:29;;;;;;;4.68;1.40;;;3.60;90.30;;;;;;5066339;28;20067;-72
2020/12/25 07:08:55;;;;;;;3.85;1.70;;;3.70;90.30;;;;;;5064783;28;20071;-72
2020/12/25 07:11:20;;;;;;;5.70;1.65;;;3.70;89.90;;;;;;5064838;28;20372;-72
2020/12/25 07:13:47;;;;;;;6.90;1.65;;;3.70;89.70;;;;;;5057370;28;20028;-71
2020/12/25 07:16:13;;;;;;;6.93;1.75;;;3.70;89.50;;;;;;5064763;28;20060;-71
2020/12/25 07:18:38;;;;;;;5.82;1.48;;;3.70;89.20;;;;;;5084472;28;20048;-71
2020/12/25 07:21:07;;;;;;;5.22;1.63;;;3.70;89.30;;;;;;5053950;28;20087;-76
2020/12/25 07:23:32;;;;;;;4.50;1.50;;;3.60;89.40;;;;;;5056599;28;20491;-72
2020/12/25 07:26:01;;;;;;;4.90;1.55;;;3.60;89.40;;;;;;5063045;28;20033;-76
2020/12/25 07:28:28;;;;;;;4.78;1.48;;;3.60;89.40;;;;;;5063778;28;20127;-72
2020/12/25 07:30:56;;;;;;;5.55;1.75;;;3.50;89.50;;;;;;5080797;28;20039;-71
2020/12/25 07:33:22;;;;;;;8.00;1.52;;;3.50;89.70;;;;;;5059867;28;20041;-72
2020/12/25 07:35:48;;;;;;;5.45;1.55;;;3.40;89.80;;;;;;5066933;28;20123;-72
2020/12/25 07:38:14;;;;;;;4.43;1.60;;;3.40;89.90;;;;;;5063724;28;20032;-73
2020/12/25 07:40:44;;;;;;;3.63;1.75;;;3.40;90.00;;;;;;5064858;28;20480;-71
2020/12/25 07:43:11;;;;;;;8.18;3.58;;;3.40;90.00;;;;;;5061588;28;20025;-72
2020/12/25 07:45:38;;;;;;;7.78;4.03;;;3.30;90.10;;;;;;5055856;28;20040;-72
2020/12/25 07:48:08;;;;;;;9.40;3.50;;;3.30;90.30;;;;;;5063578;28;20037;-72
2020/12/25 07:50:41;;;;;;;7.28;2.65;;;3.30;90.50;;;;;;5065683;28;20494;-71
2020/12/25 07:53:11;;;;;;;5.60;2.38;;;3.30;90.70;;;;;;5075146;28;20027;-72
2020/12/25 07:55:37;;;;;;;10.23;3.20;;;3.30;90.70;;;;;;5065308;28;20041;-73
2020/12/25 07:58:03;;;;;;;8.50;4.60;;;3.30;90.80;;;;;;5063893;28;20035;-71
2020/12/25 08:00:30;;;;;;;10.82;2.83;;;3.30;91.10;;;;;;5065796;28;20522;-72
2020/12/25 08:02:57;;;;;;;10.30;3.40;;;3.30;91.30;;;;;;5054202;28;20381;-71
2020/12/25 08:05:25;;;;;;;9.40;4.65;;;3.30;91.50;;;;;;5085377;28;20062;-72
2020/12/25 08:07:52;;;;;;;9.27;3.78;;;3.30;91.60;;;;;;5060651;28;20045;-71
2020/12/25 08:10:18;;;;;;;10.20;3.15;;;3.30;91.60;;;;;;5064996;28;20025;-71
2020/12/25 08:12:48;;;;;;;8.60;3.28;;;3.30;91.50;;;;;;5059954;28;20053;-72
2020/12/25 08:15:14;;;;;;;11.93;4.05;;;3.40;91.60;;;;;;5063181;28;20035;-75
2020/12/25 08:17:40;;;;;;;9.73;2.70;;;3.30;91.60;;;;;;5063082;28;20029;-71
2020/12/25 08:20:06;;;;;;;7.13;2.33;;;3.30;91.60;;;;;;5064488;28;20037;-72
2020/12/25 08:22:32;;;;;;;6.95;2.03;;;3.30;91.60;;;;;;5065497;28;20026;-72
2020/12/25 08:24:59;;;;;;;6.72;3.00;;;3.30;91.70;;;;;;5060275;28;20025;-71
2020/12/25 08:27:31;;;;;;;9.55;2.53;;;3.30;91.60;;;;;;5064496;28;20543;-71
2020/12/25 08:30:01;;;;;;;9.02;2.67;;;3.20;91.60;;;;;;5067529;28;20028;-71
2020/12/25 08:32:30;;;;;;;7.78;2.58;;;3.20;91.60;;;;;;5065864;28;20036;-71
2020/12/25 08:35:12;;;;;;;8.18;2.72;;;3.20;91.60;;;;;;5065115;28;20600;-71
2020/12/25 08:37:38;;;;;;;8.93;2.78;;;3.20;91.80;;;;;;5062309;28;20043;-73
2020/12/25 08:40:14;;;;;;;6.93;2.67;;;3.30;91.70;;;;;;5069345;28;20028;-72
2020/12/25 08:42:41;;;;;;;9.80;3.42;;;3.40;91.40;;;;;;5067010;28;20033;-72
2020/12/25 08:45:07;;;;;;;10.88;3.10;;;3.40;91.30;;;;;;5069572;28;20111;-72
2020/12/25 08:47:33;;;;;;;13.20;3.90;;;3.50;90.50;;;;;;5052823;28;20029;-71
2020/12/25 08:49:58;;;;;;;12.25;2.80;;;3.60;89.60;;;;;;5061205;28;20032;-71
2020/12/25 08:52:24;;;;;;;9.05;2.65;;;3.60;89.50;;;;;;5070991;28;20027;-71
2020/12/25 08:54:57;;;;;;;11.00;3.47;;;3.60;89.40;;;;;;5068179;28;20075;-73
2020/12/25 08:57:24;;;;;;;14.07;5.45;;;3.60;89.70;;;;;;5080716;28;20410;-71
2020/12/25 09:00:06;;;;;;;27.55;12.60;;;3.60;90.00;;;;;;5065094;28;20090;-71
2020/12/25 09:02:32;;;;;;;20.73;9.73;;;3.70;90.20;;;;;;5064021;28;20098;-73
2020/12/25 09:04:58;;;;;;;18.20;7.32;;;3.80;90.30;;;;;;5057775;28;20044;-71
2020/12/25 09:07:23;;;;;;;12.38;5.07;;;3.90;90.40;;;;;;5058802;28;20036;-70
2020/12/25 09:09:49;;;;;;;8.82;4.80;;;4.10;90.20;;;;;;5058894;28;20040;-71
2020/12/25 09:12:14;;;;;;;12.45;4.65;;;4.10;89.80;;;;;;5064877;28;20489;-72
2020/12/25 09:14:40;;;;;;;13.75;4.57;;;4.10;90.00;;;;;;5066509;28;20048;-71
2020/12/25 09:17:06;;;;;;;13.10;5.30;;;4.10;89.90;;;;;;5059002;28;20036;-72
2020/12/25 09:19:31;;;;;;;11.40;5.90;;;4.10;90.00;;;;;;5070727;28;20430;-72
2020/12/25 09:21:57;;;;;;;9.57;5.32;;;4.10;90.20;;;;;;5060522;28;20024;-71
2020/12/25 09:24:23;;;;;;;13.30;6.43;;;4.30;90.30;;;;;;5067068;28;20033;-73
2020/12/25 09:26:48;;;;;;;12.95;6.32;;;4.50;90.00;;;;;;5069156;28;20029;-72
2020/12/25 09:29:14;;;;;;;9.73;3.88;;;4.60;89.70;;;;;;5050433;28;20131;-72
2020/12/25 09:31:39;;;;;;;12.15;4.10;;;4.60;89.40;;;;;;5056534;28;20064;-71
2020/12/25 09:34:05;;;;;;;12.65;5.88;;;4.60;89.50;;;;;;5063175;28;20486;-71
2020/12/25 09:36:31;;;;;;;12.10;5.05;;;4.60;89.70;;;;;;5058609;28;20040;-72
2020/12/25 09:38:56;;;;;;;16.67;6.65;;;4.50;89.90;;;;;;5057390;28;20078;-74
2020/12/25 09:41:22;;;;;;;11.20;4.53;;;4.50;90.30;;;;;;5060756;28;20399;-71
2020/12/25 09:43:47;;;;;;;10.40;4.70;;;4.40;90.50;;;;;;5066229;28;20037;-71
2020/12/25 09:46:13;;;;;;;12.10;4.03;;;4.40;90.60;;;;;;5057364;28;20120;-73
2020/12/25 09:48:39;;;;;;;14.48;5.57;;;4.40;90.80;;;;;;5068903;28;20032;-69
2020/12/25 09:51:05;;;;;;;12.52;5.72;;;4.30;90.80;;;;;;5067355;28;20036;-69
2020/12/25 09:53:30;;;;;;;13.75;6.05;;;4.40;90.90;;;;;;5065729;28;20032;-69
2020/12/25 09:55:56;;;;;;;14.63;5.85;;;4.30;91.00;;;;;;5064385;28;20036;-68
2020/12/25 09:58:22;;;;;;;11.43;6.30;;;4.40;91.00;;;;;;5060247;28;20032;-68
2020/12/25 10:00:47;;;;;;;21.95;10.02;;;4.50;91.30;;;;;;5065260;28;20036;-70
2020/12/25 10:03:13;;;;;;;31.38;19.10;;;4.80;91.60;;;;;;5055526;28;20025;-71
2020/12/25 10:05:38;;;;;;;21.10;10.40;;;5.00;91.30;;;;;;5062400;28;20079;-70
2020/12/25 10:08:04;;;;;;;11.93;5.70;;;5.20;90.00;;;;;;5059241;28;20037;-71
2020/12/25 10:10:30;;;;;;;13.25;5.10;;;5.20;88.60;;;;;;5057085;28;20036;-70
2020/12/25 10:12:55;;;;;;;12.27;3.95;;;5.30;88.50;;;;;;5071679;28;20111;-69
2020/12/25 10:15:22;;;;;;;16.63;5.18;;;5.20;88.40;;;;;;5062225;28;20090;-70
2020/12/25 10:17:48;;;;;;;13.00;4.75;;;5.20;88.50;;;;;;5063019;28;20043;-73
2020/12/25 10:20:14;;;;;;;10.20;4.18;;;5.30;88.30;;;;;;5056059;28;20025;-76
2020/12/25 10:22:39;;;;;;;12.23;4.30;;;5.30;88.40;;;;;;5067609;28;20032;-72
2020/12/25 10:25:05;;;;;;;12.95;4.10;;;5.50;88.00;;;;;;5061016;28;20051;-69
2020/12/25 10:27:31;;;;;;;11.07;4.93;;;5.60;87.30;;;;;;5055678;28;20037;-69
2020/12/25 10:29:57;;;;;;;10.73;4.60;;;5.60;87.10;;;;;;5064054;28;20044;-69
2020/12/25 10:32:22;;;;;;;13.18;4.90;;;5.60;87.10;;;;;;5063778;28;20185;-69
2020/12/25 10:34:48;;;;;;;11.07;4.80;;;5.60;87.20;;;;;;5062942;28;20295;-68
2020/12/25 10:37:14;;;;;;;11.40;4.20;;;5.50;87.20;;;;;;5062833;28;20378;-72
2020/12/25 10:39:39;;;;;;;11.43;4.50;;;5.60;87.20;;;;;;5066617;28;20450;-68
2020/12/25 10:42:11;;;;;;;11.80;4.13;;;5.70;86.40;;;;;;5065008;28;20477;-68
2020/12/25 10:44:37;;;;;;;13.25;4.90;;;5.90;86.00;;;;;;5063976;28;20383;-70
2020/12/25 10:47:04;;;;;;;11.75;3.28;;;6.20;85.70;;;;;;5061819;28;20029;-69
2020/12/25 10:49:30;;;;;;;12.85;3.85;;;6.30;84.60;;;;;;5063909;28;20044;-68
2020/12/25 10:51:55;;;;;;;12.13;2.83;;;6.40;84.30;;;;;;5064659;28;20356;-69
2020/12/25 10:54:21;;;;;;;15.02;3.90;;;6.50;83.60;;;;;;5064692;28;20040;-69
2020/12/25 10:56:47;;;;;;;11.40;3.25;;;6.30;83.10;;;;;;5073864;28;20081;-69
2020/12/25 10:59:13;;;;;;;10.73;2.78;;;6.20;83.90;;;;;;5053637;28;20068;-70
2020/12/25 11:01:40;;;;;;;12.00;3.50;;;6.10;84.00;;;;;;5074231;28;21113;-69
2020/12/25 11:04:05;;;;;;;10.07;3.22;;;5.80;84.00;;;;;;5052918;28;20032;-69
2020/12/25 11:06:36;;;;;;;8.02;2.88;;;5.70;84.60;;;;;;5048518;28;20372;-69
2020/12/25 11:09:03;;;;;;;10.55;2.40;;;5.70;85.30;;;;;;5055467;28;20055;-69
2020/12/25 11:11:30;;;;;;;9.63;2.53;;;5.60;84.70;;;;;;5050233;28;20037;-72
2020/12/25 11:13:56;;;;;;;7.22;2.58;;;5.50;84.10;;;;;;5055200;28;20391;-70
2020/12/25 11:16:26;;;;;;;7.53;3.10;;;5.40;84.30;;;;;;5049297;28;20037;-69
2020/12/25 11:18:53;;;;;;;9.75;3.35;;;5.30;84.50;;;;;;5061011;28;20036;-70
2020/12/25 11:21:26;;;;;;;7.60;4.10;;;5.40;84.30;;;;;;5053045;28;20033;-69
2020/12/25 11:23:53;;;;;;;7.13;3.10;;;5.50;84.60;;;;;;5051909;28;20430;-69
2020/12/25 11:26:23;;;;;;;6.80;2.30;;;5.70;84.30;;;;;;5060167;28;20033;-69
2020/12/25 11:28:55;;;;;;;9.90;2.10;;;5.90;84.20;;;;;;5055270;28;22324;-69
2020/12/25 11:31:21;;;;;;;7.03;1.92;;;6.10;83.50;;;;;;5061265;28;20361;-69
2020/12/25 11:33:48;;;;;;;5.72;2.13;;;6.10;82.70;;;;;;5057432;28;20036;-70
2020/12/25 11:36:28;;;;;;;7.10;1.95;;;6.00;82.40;;;;;;5056619;28;20033;-70
2020/12/25 11:38:54;;;;;;;6.40;2.50;;;5.90;81.60;;;;;;5049932;28;20028;-69
2020/12/25 11:41:22;;;;;;;7.30;2.03;;;6.00;81.80;;;;;;5054672;28;23138;-70
2020/12/25 11:43:49;;;;;;;4.28;1.40;;;6.00;82.20;;;;;;5066654;28;20518;-69
2020/12/25 11:46:15;;;;;;;5.32;1.70;;;6.00;82.40;;;;;;5055961;28;20047;-73
2020/12/25 11:48:41;;;;;;;8.50;1.83;;;6.10;81.00;;;;;;5047585;28;20079;-71
2020/12/25 11:51:08;;;;;;;6.55;1.63;;;6.10;80.90;;;;;;5049654;28;20052;-69
2020/12/25 11:53:37;;;;;;;7.68;1.98;;;6.30;80.10;;;;;;5055874;28;20060;-68
2020/12/25 11:56:03;;;;;;;6.60;2.05;;;6.30;80.30;;;;;;5054169;28;20044;-69
2020/12/25 11:58:28;;;;;;;7.30;2.70;;;6.30;80.40;;;;;;5037544;28;20175;-70
2020/12/25 12:00:54;;;;;;;9.70;2.45;;;6.40;80.70;;;;;;5053682;28;20140;-69
2020/12/25 12:03:23;;;;;;;6.05;2.15;;;6.50;80.70;;;;;;5042243;28;20128;-67
2020/12/25 12:05:49;;;;;;;6.20;2.33;;;6.50;81.20;;;;;;5036362;28;20048;-67
2020/12/25 12:08:15;;;;;;;12.43;7.10;;;6.60;81.60;;;;;;5039619;28;20099;-70
2020/12/25 12:10:40;;;;;;;10.10;4.10;;;6.60;81.40;;;;;;5043652;28;20036;-67
2020/12/25 12:13:06;;;;;;;9.15;4.30;;;6.60;81.80;;;;;;5055960;28;20572;-70
2020/12/25 12:15:40;;;;;;;7.35;2.95;;;6.60;81.60;;;;;;5055087;28;20044;-69
2020/12/25 12:18:07;;;;;;;8.43;2.83;;;6.60;81.30;;;;;;5056562;28;20031;-69
2020/12/25 12:20:34;;;;;;;6.50;1.95;;;6.60;81.30;;;;;;5057240;28;20045;-67
2020/12/25 12:23:00;;;;;;;4.68;2.10;;;6.60;81.90;;;;;;5056044;28;20433;-67
2020/12/25 12:25:26;;;;;;;9.55;3.58;;;6.60;82.00;;;;;;5071082;28;20438;-67
2020/12/25 12:27:51;;;;;;;6.80;2.33;;;6.60;81.40;;;;;;5063460;28;20035;-70
2020/12/25 12:30:17;;;;;;;7.25;2.67;;;6.60;79.30;;;;;;5057564;28;20101;-67
2020/12/25 12:32:43;;;;;;;8.13;2.25;;;6.70;79.70;;;;;;5058951;28;20028;-67
2020/12/25 12:35:09;;;;;;;7.70;2.88;;;6.70;78.80;;;;;;5049819;28;20048;-68
2020/12/25 12:37:34;;;;;;;7.50;2.80;;;6.80;78.70;;;;;;5040551;28;20113;-70
2020/12/25 12:40:00;;;;;;;7.47;1.80;;;6.90;78.40;;;;;;5045419;28;20513;-67
2020/12/25 12:42:26;;;;;;;8.73;1.88;;;6.80;77.50;;;;;;5045356;28;20037;-68
2020/12/25 12:44:51;;;;;;;8.88;1.80;;;6.90;78.00;;;;;;5035587;28;20024;-67
2020/12/25 12:47:17;;;;;;;7.40;2.13;;;6.90;78.30;;;;;;5039499;28;20021;-68
2020/12/25 12:49:45;;;;;;;11.00;2.28;;;7.00;77.90;;;;;;5055162;28;20040;-67
2020/12/25 12:52:11;;;;;;;9.25;2.08;;;7.10;78.50;;;;;;5069327;28;20025;-68